This is the latest recevied weather packets stored in our database for station/object RV1CJ-14. If no packets are shown the sender has not sent any weather packets the latest 10 day(s).
| Time | Temp. | Humidity | Pressure | Rain* | Wind** | Luminosity | Snow |
|---|---|---|---|---|---|---|---|
| 1777926003 | 10° C | 88% | 998.8 hPa | 0 mm | - | 0 W/m² | - |
| 1777925403 | 10° C | 87% | 998.6 hPa | 0 mm | - | 0 W/m² | - |
| 1777924803 | 10° C | 87% | 998.4 hPa | 0 mm | - | 0 W/m² | - |
| 1777924203 | 10.56° C | 88% | 998.3 hPa | 0 mm | - | 0 W/m² | - |
| 1777923603 | 10.56° C | 88% | 998.3 hPa | 0 mm | - | 0 W/m² | - |
| 1777923003 | 10.56° C | 87% | 998.2 hPa | 0 mm | - | 0 W/m² | - |
| 1777922403 | 11.11° C | 86% | 998 hPa | 0 mm | - | 0 W/m² | - |
| 1777921803 | 11.67° C | 85% | 997.8 hPa | 0 mm | - | 0 W/m² | - |
| 1777921203 | 11.67° C | 85% | 997.7 hPa | 0 mm | - | 0 W/m² | - |
| 1777920603 | 12.22° C | 85% | 997.5 hPa | 0 mm | - | 0 W/m² | - |
| 1777920003 | 12.22° C | 86% | 997.5 hPa | 0 mm | - | 0 W/m² | - |
| 1777919403 | 11.67° C | 88% | 997.5 hPa | 0 mm | - | 0 W/m² | - |
| 1777918803 | 11.67° C | 89% | 997.5 hPa | 0 mm | - | 0 W/m² | - |
| 1777918203 | 11.67° C | 89% | 997.3 hPa | 0 mm | - | 0 W/m² | - |
| 1777917603 | 11.67° C | 89% | 997.2 hPa | 0 mm | - | 0 W/m² | - |
| 1777917003 | 12.22° C | 89% | 997.1 hPa | 0 mm | - | 5 W/m² | - |
| 1777916403 | 12.22° C | 89% | 996.9 hPa | 0 mm | - | 9 W/m² | - |
| 1777915803 | 12.22° C | 88% | 996.6 hPa | 0 mm | - | 12 W/m² | - |
| 1777915203 | 12.78° C | 87% | 996.7 hPa | 0 mm | - | 7 W/m² | - |
| 1777914603 | 13.33° C | 87% | 996.7 hPa | 0 mm | - | 5 W/m² | - |
| 1777914003 | 13.89° C | 85% | 996.6 hPa | 0 mm | - | 0 W/m² | - |
| 1777913403 | 13.89° C | 85% | 996.4 hPa | 0 mm | - | 0 W/m² | - |
| 1777912803 | 14.44° C | 83% | 996.5 hPa | 0 mm | - | 7 W/m² | - |
| 1777912203 | 15° C | 81% | 996.6 hPa | 0 mm | - | 9 W/m² | - |
| 1777911603 | 16.11° C | 77% | 996.4 hPa | 0 mm | - | 7 W/m² | - |
* Rain latest hour (hover to see other rain measurements)
** Current wind speed in m/s (hover to see current wind gust speed)